MSC Vigo — A8ZV8 — position and weather

sailwx.info

Track history (hours):
 
Tides and Currents Weather Stations Pressure Air Temp Water Temp Dewpoint Dewpoint Depression Visibility Wind Speed Wind Dir Waves Ship Positions

MSC Vigo

Last reported at 2016-Sep-29 00:32 UTC. Time now 2016-Sep-29 06:50 UTC.
Position N 38°27' E 015°54'.

Length 270 m; draft 11.5 m.

Type: Ship (hazmat cat A). MMSI: 636092276.

Date/timePositionNaut miles runAvg speedWind from/ knotsBaromVisibWave heightAir tempDewpointWater temp
2016-Sep-29 00:32N 38°27' E 015°54'0 0.0
2016-Sep-28 21:29N 38°27' E 015°54'0 0.0
2016-Sep-28 19:32N 38°27' E 015°54'0 0.0
2016-Sep-28 16:23N 38°27' E 015°54'0 0.0
2016-Sep-28 15:29N 38°27' E 015°54'0 0.0
2016-Sep-28 12:32N 38°27' E 015°54'5 1.2
2016-Sep-28 08:32N 38°27' E 015°48'9718.5
2016-Sep-28 03:17N 38°24' E 013°44'1520.3
2016-Sep-28 02:33N 38°26' E 013°25'2020.1
2016-Sep-28 01:34N 38°27' E 012°59'50620.3
2016-Sep-27 00:34N 39°08' E 002°12'10920.3
2016-Sep-26 19:12N 39°25' W 000°07'10 2.6
2016-Sep-26 15:31N 39°26' W 000°19'0 0.0
2016-Sep-26 13:32N 39°26' W 000°19'0 0.0
2016-Sep-26 11:31N 39°26' W 000°19'0 0.0
2016-Sep-26 08:31N 39°26' W 000°19'0 0.0
2016-Sep-26 02:32N 39°26' W 000°19'0 0.0
2016-Sep-26 01:28N 39°26' W 000°19'0 0.0
2016-Sep-26 00:31N 39°26' W 000°19'0 0.0
2016-Sep-25 21:31N 39°26' W 000°19'4 1.0
2016-Sep-25 17:33N 39°25' W 000°15'1 0.5
2016-Sep-25 16:33N 39°25' W 000°14'4 4.1
2016-Sep-25 15:33N 39°23' W 000°09'79 9.6
2016-Sep-25 07:20N 38°04' W 000°04'4315.3
2016-Sep-25 04:33N 37°30' W 000°36'11813.2
2016-Sep-24 19:33N 36°19' W 002°35'  
2016-Sep-22 04:18N 28°17' W 013°24'1115.2
2016-Sep-22 03:33N 28°07' W 013°31'  
Track history (hours):
 
Tides and Currents Weather Stations Pressure Air Temp Water Temp Dewpoint Dewpoint Depression Visibility Wind Speed Wind Dir Waves Ship Positions

MSC Vigo

Last reported at 2016-Sep-29 00:32 UTC. Time now 2016-Sep-29 06:50 UTC.
Position N 38°27' E 015°54'.

Length 270 m; draft 11.5 m.

Type: Ship (hazmat cat A). MMSI: 636092276.

Date/timePositionNaut miles runAvg speedWind from/ knotsBaromVisibWave heightAir tempDewpointWater temp
2016-Sep-29 00:32N 38°27' E 015°54'0 0.0
2016-Sep-28 21:29N 38°27' E 015°54'0 0.0
2016-Sep-28 19:32N 38°27' E 015°54'0 0.0
2016-Sep-28 16:23N 38°27' E 015°54'0 0.0
2016-Sep-28 15:29N 38°27' E 015°54'0 0.0
2016-Sep-28 12:32N 38°27' E 015°54'5 1.2
2016-Sep-28 08:32N 38°27' E 015°48'9718.5
2016-Sep-28 03:17N 38°24' E 013°44'1520.3
2016-Sep-28 02:33N 38°26' E 013°25'2020.1
2016-Sep-28 01:34N 38°27' E 012°59'50620.3
2016-Sep-27 00:34N 39°08' E 002°12'10920.3
2016-Sep-26 19:12N 39°25' W 000°07'10 2.6
2016-Sep-26 15:31N 39°26' W 000°19'0 0.0
2016-Sep-26 13:32N 39°26' W 000°19'0 0.0
2016-Sep-26 11:31N 39°26' W 000°19'0 0.0
2016-Sep-26 08:31N 39°26' W 000°19'0 0.0
2016-Sep-26 02:32N 39°26' W 000°19'0 0.0
2016-Sep-26 01:28N 39°26' W 000°19'0 0.0
2016-Sep-26 00:31N 39°26' W 000°19'0 0.0
2016-Sep-25 21:31N 39°26' W 000°19'4 1.0
2016-Sep-25 17:33N 39°25' W 000°15'1 0.5
2016-Sep-25 16:33N 39°25' W 000°14'4 4.1
2016-Sep-25 15:33N 39°23' W 000°09'79 9.6
2016-Sep-25 07:20N 38°04' W 000°04'4315.3
2016-Sep-25 04:33N 37°30' W 000°36'11813.2
2016-Sep-24 19:33N 36°19' W 002°35'  
2016-Sep-22 04:18N 28°17' W 013°24'1115.2
2016-Sep-22 03:33N 28°07' W 013°31'  

Dump ship's entire track history